sensor_id;sensor_type;location;lat;lon;timestamp;P1;durP1;ratioP1;P2;durP2;ratioP2
22929;SDS011;11630;42.660;23.292;2022-08-19T00:02:22;9.30;;;6.33;;
22929;SDS011;11630;42.660;23.292;2022-08-19T00:04:53;7.87;;;5.93;;
22929;SDS011;11630;42.660;23.292;2022-08-19T00:07:25;7.13;;;6.10;;
22929;SDS011;11630;42.660;23.292;2022-08-19T00:09:56;7.47;;;5.50;;
22929;SDS011;11630;42.660;23.292;2022-08-19T00:12:27;7.40;;;6.37;;
22929;SDS011;11630;42.660;23.292;2022-08-19T00:14:58;10.70;;;6.10;;
22929;SDS011;11630;42.660;23.292;2022-08-19T00:17:29;9.37;;;6.20;;
22929;SDS011;11630;42.660;23.292;2022-08-19T00:19:59;10.60;;;6.23;;
22929;SDS011;11630;42.660;23.292;2022-08-19T00:22:31;9.80;;;5.50;;
22929;SDS011;11630;42.660;23.292;2022-08-19T00:25:01;11.53;;;6.80;;
22929;SDS011;11630;42.660;23.292;2022-08-19T00:27:33;11.80;;;5.93;;
22929;SDS011;11630;42.660;23.292;2022-08-19T00:30:06;17.07;;;6.83;;
22929;SDS011;11630;42.660;23.292;2022-08-19T00:32:38;6.47;;;5.53;;
22929;SDS011;11630;42.660;23.292;2022-08-19T00:35:08;9.57;;;5.93;;
22929;SDS011;11630;42.660;23.292;2022-08-19T00:37:38;9.67;;;5.53;;
22929;SDS011;11630;42.660;23.292;2022-08-19T00:40:11;9.17;;;6.10;;
22929;SDS011;11630;42.660;23.292;2022-08-19T00:42:41;9.03;;;5.80;;
22929;SDS011;11630;42.660;23.292;2022-08-19T00:45:15;9.87;;;5.80;;
22929;SDS011;11630;42.660;23.292;2022-08-19T00:47:44;6.77;;;6.13;;
22929;SDS011;11630;42.660;23.292;2022-08-19T00:50:18;6.50;;;5.83;;
22929;SDS011;11630;42.660;23.292;2022-08-19T00:52:50;8.33;;;6.37;;
22929;SDS011;11630;42.660;23.292;2022-08-19T00:55:22;6.80;;;5.60;;
22929;SDS011;11630;42.660;23.292;2022-08-19T00:57:57;9.97;;;6.50;;
22929;SDS011;11630;42.660;23.292;2022-08-19T01:00:28;8.40;;;5.93;;
22929;SDS011;11630;42.660;23.292;2022-08-19T01:02:58;6.73;;;5.70;;
22929;SDS011;11630;42.660;23.292;2022-08-19T01:05:27;9.40;;;5.87;;
22929;SDS011;11630;42.660;23.292;2022-08-19T01:08:00;6.23;;;5.67;;
22929;SDS011;11630;42.660;23.292;2022-08-19T01:10:33;6.67;;;5.90;;
22929;SDS011;11630;42.660;23.292;2022-08-19T01:13:07;8.17;;;6.27;;
22929;SDS011;11630;42.660;23.292;2022-08-19T01:15:43;11.10;;;5.70;;
22929;SDS011;11630;42.660;23.292;2022-08-19T01:18:17;8.07;;;5.67;;
22929;SDS011;11630;42.660;23.292;2022-08-19T01:20:48;6.60;;;5.80;;
22929;SDS011;11630;42.660;23.292;2022-08-19T01:23:20;6.20;;;5.60;;
22929;SDS011;11630;42.660;23.292;2022-08-19T01:25:51;7.73;;;7.00;;
22929;SDS011;11630;42.660;23.292;2022-08-19T01:28:25;6.70;;;6.00;;
22929;SDS011;11630;42.660;23.292;2022-08-19T01:30:56;15.07;;;6.43;;
22929;SDS011;11630;42.660;23.292;2022-08-19T01:33:27;14.67;;;6.53;;
22929;SDS011;11630;42.660;23.292;2022-08-19T01:36:04;7.50;;;5.77;;
22929;SDS011;11630;42.660;23.292;2022-08-19T01:38:36;8.77;;;6.27;;
22929;SDS011;11630;42.660;23.292;2022-08-19T01:41:10;8.53;;;5.23;;
22929;SDS011;11630;42.660;23.292;2022-08-19T01:43:41;6.23;;;5.63;;
22929;SDS011;11630;42.660;23.292;2022-08-19T01:46:12;6.43;;;5.83;;
22929;SDS011;11630;42.660;23.292;2022-08-19T01:48:44;6.37;;;5.73;;
22929;SDS011;11630;42.660;23.292;2022-08-19T01:51:14;7.83;;;5.70;;
22929;SDS011;11630;42.660;23.292;2022-08-19T01:53:47;7.57;;;6.80;;
22929;SDS011;11630;42.660;23.292;2022-08-19T01:56:17;10.67;;;7.47;;
22929;SDS011;11630;42.660;23.292;2022-08-19T01:58:51;6.73;;;6.03;;
22929;SDS011;11630;42.660;23.292;2022-08-19T02:01:21;7.70;;;6.23;;
22929;SDS011;11630;42.660;23.292;2022-08-19T02:03:51;9.43;;;6.37;;
22929;SDS011;11630;42.660;23.292;2022-08-19T02:06:22;6.10;;;5.50;;
22929;SDS011;11630;42.660;23.292;2022-08-19T02:08:53;7.57;;;6.77;;
22929;SDS011;11630;42.660;23.292;2022-08-19T02:11:26;7.10;;;6.43;;
22929;SDS011;11630;42.660;23.292;2022-08-19T02:13:57;8.80;;;6.50;;
22929;SDS011;11630;42.660;23.292;2022-08-19T02:16:28;9.20;;;6.60;;
22929;SDS011;11630;42.660;23.292;2022-08-19T02:18:58;7.13;;;6.30;;
22929;SDS011;11630;42.660;23.292;2022-08-19T02:21:28;7.57;;;6.63;;
22929;SDS011;11630;42.660;23.292;2022-08-19T02:24:00;7.30;;;6.60;;
22929;SDS011;11630;42.660;23.292;2022-08-19T02:26:30;12.27;;;6.97;;
22929;SDS011;11630;42.660;23.292;2022-08-19T02:29:02;7.23;;;6.50;;
22929;SDS011;11630;42.660;23.292;2022-08-19T02:31:33;14.13;;;6.63;;
22929;SDS011;11630;42.660;23.292;2022-08-19T02:34:03;7.23;;;6.43;;
22929;SDS011;11630;42.660;23.292;2022-08-19T02:36:34;9.33;;;7.03;;
22929;SDS011;11630;42.660;23.292;2022-08-19T02:39:04;8.27;;;6.50;;
22929;SDS011;11630;42.660;23.292;2022-08-19T02:41:34;8.70;;;6.70;;
22929;SDS011;11630;42.660;23.292;2022-08-19T02:44:05;6.73;;;5.97;;
22929;SDS011;11630;42.660;23.292;2022-08-19T02:46:36;6.93;;;6.33;;
22929;SDS011;11630;42.660;23.292;2022-08-19T02:49:07;7.40;;;6.70;;
22929;SDS011;11630;42.660;23.292;2022-08-19T02:51:39;10.47;;;7.20;;
22929;SDS011;11630;42.660;23.292;2022-08-19T02:54:13;9.53;;;6.90;;
22929;SDS011;11630;42.660;23.292;2022-08-19T02:56:44;8.30;;;6.77;;
22929;SDS011;11630;42.660;23.292;2022-08-19T02:59:15;10.17;;;6.17;;
22929;SDS011;11630;42.660;23.292;2022-08-19T03:01:45;8.33;;;6.40;;
22929;SDS011;11630;42.660;23.292;2022-08-19T03:04:16;12.73;;;7.30;;
22929;SDS011;11630;42.660;23.292;2022-08-19T03:06:47;11.47;;;6.73;;
22929;SDS011;11630;42.660;23.292;2022-08-19T03:09:20;9.47;;;6.83;;
22929;SDS011;11630;42.660;23.292;2022-08-19T03:11:51;8.23;;;6.97;;
22929;SDS011;11630;42.660;23.292;2022-08-19T03:14:22;11.50;;;7.17;;
22929;SDS011;11630;42.660;23.292;2022-08-19T03:16:53;8.00;;;6.63;;
22929;SDS011;11630;42.660;23.292;2022-08-19T03:19:24;15.03;;;6.43;;
22929;SDS011;11630;42.660;23.292;2022-08-19T03:21:58;11.00;;;6.63;;
22929;SDS011;11630;42.660;23.292;2022-08-19T03:24:29;7.47;;;6.30;;
22929;SDS011;11630;42.660;23.292;2022-08-19T03:27:00;14.30;;;6.97;;
22929;SDS011;11630;42.660;23.292;2022-08-19T03:29:36;9.13;;;6.90;;
22929;SDS011;11630;42.660;23.292;2022-08-19T03:32:03;13.60;;;7.50;;
22929;SDS011;11630;42.660;23.292;2022-08-19T03:34:35;9.17;;;7.50;;
22929;SDS011;11630;42.660;23.292;2022-08-19T03:37:09;13.73;;;7.37;;
22929;SDS011;11630;42.660;23.292;2022-08-19T03:39:41;15.27;;;8.17;;
22929;SDS011;11630;42.660;23.292;2022-08-19T03:42:12;8.53;;;6.27;;
22929;SDS011;11630;42.660;23.292;2022-08-19T03:44:41;13.40;;;7.33;;
22929;SDS011;11630;42.660;23.292;2022-08-19T03:47:13;12.17;;;7.20;;
22929;SDS011;11630;42.660;23.292;2022-08-19T03:49:44;10.00;;;6.97;;
22929;SDS011;11630;42.660;23.292;2022-08-19T03:52:15;11.63;;;8.07;;
22929;SDS011;11630;42.660;23.292;2022-08-19T03:54:47;14.33;;;7.77;;
22929;SDS011;11630;42.660;23.292;2022-08-19T03:57:18;11.30;;;7.30;;
22929;SDS011;11630;42.660;23.292;2022-08-19T03:59:49;13.20;;;7.43;;
22929;SDS011;11630;42.660;23.292;2022-08-19T04:02:20;7.73;;;6.83;;
22929;SDS011;11630;42.660;23.292;2022-08-19T04:04:50;14.70;;;8.20;;
22929;SDS011;11630;42.660;23.292;2022-08-19T04:07:22;15.60;;;7.73;;
22929;SDS011;11630;42.660;23.292;2022-08-19T04:09:52;21.93;;;8.00;;
22929;SDS011;11630;42.660;23.292;2022-08-19T04:12:22;17.97;;;8.03;;
22929;SDS011;11630;42.660;23.292;2022-08-19T04:14:53;16.07;;;8.37;;
22929;SDS011;11630;42.660;23.292;2022-08-19T04:17:24;21.20;;;8.07;;
22929;SDS011;11630;42.660;23.292;2022-08-19T04:19:55;12.30;;;7.77;;
22929;SDS011;11630;42.660;23.292;2022-08-19T04:22:26;36.40;;;9.13;;
22929;SDS011;11630;42.660;23.292;2022-08-19T04:24:57;28.27;;;8.37;;
22929;SDS011;11630;42.660;23.292;2022-08-19T04:27:27;17.33;;;8.33;;
22929;SDS011;11630;42.660;23.292;2022-08-19T04:29:58;20.17;;;9.57;;
22929;SDS011;11630;42.660;23.292;2022-08-19T04:32:32;16.73;;;8.50;;
22929;SDS011;11630;42.660;23.292;2022-08-19T04:35:03;13.00;;;7.60;;
22929;SDS011;11630;42.660;23.292;2022-08-19T04:37:34;14.53;;;7.33;;
22929;SDS011;11630;42.660;23.292;2022-08-19T04:40:06;15.07;;;7.10;;
22929;SDS011;11630;42.660;23.292;2022-08-19T04:42:55;14.50;;;7.17;;
22929;SDS011;11630;42.660;23.292;2022-08-19T04:45:26;15.77;;;7.80;;
22929;SDS011;11630;42.660;23.292;2022-08-19T04:47:57;21.03;;;8.30;;
22929;SDS011;11630;42.660;23.292;2022-08-19T04:50:29;18.90;;;7.93;;
22929;SDS011;11630;42.660;23.292;2022-08-19T04:53:00;13.30;;;8.10;;
22929;SDS011;11630;42.660;23.292;2022-08-19T04:55:30;21.60;;;8.23;;
22929;SDS011;11630;42.660;23.292;2022-08-19T04:58:00;19.03;;;8.60;;
22929;SDS011;11630;42.660;23.292;2022-08-19T05:00:32;21.30;;;8.97;;
22929;SDS011;11630;42.660;23.292;2022-08-19T05:03:01;28.70;;;9.87;;
22929;SDS011;11630;42.660;23.292;2022-08-19T05:05:32;14.43;;;9.43;;
22929;SDS011;11630;42.660;23.292;2022-08-19T05:08:04;14.97;;;8.13;;
22929;SDS011;11630;42.660;23.292;2022-08-19T05:10:37;10.73;;;8.73;;
22929;SDS011;11630;42.660;23.292;2022-08-19T05:13:08;16.90;;;9.00;;
22929;SDS011;11630;42.660;23.292;2022-08-19T05:15:39;11.03;;;9.10;;
22929;SDS011;11630;42.660;23.292;2022-08-19T05:18:10;15.60;;;9.67;;
22929;SDS011;11630;42.660;23.292;2022-08-19T05:20:57;18.03;;;9.03;;
22929;SDS011;11630;42.660;23.292;2022-08-19T05:23:44;11.80;;;8.77;;
22929;SDS011;11630;42.660;23.292;2022-08-19T05:26:15;14.23;;;9.07;;
22929;SDS011;11630;42.660;23.292;2022-08-19T05:28:46;34.37;;;11.60;;
22929;SDS011;11630;42.660;23.292;2022-08-19T05:31:19;12.33;;;8.53;;
22929;SDS011;11630;42.660;23.292;2022-08-19T05:33:50;12.70;;;9.03;;
22929;SDS011;11630;42.660;23.292;2022-08-19T05:36:21;16.93;;;9.10;;
22929;SDS011;11630;42.660;23.292;2022-08-19T05:38:52;9.67;;;8.30;;
22929;SDS011;11630;42.660;23.292;2022-08-19T05:41:23;15.70;;;9.57;;
22929;SDS011;11630;42.660;23.292;2022-08-19T05:43:55;9.63;;;8.00;;
22929;SDS011;11630;42.660;23.292;2022-08-19T05:46:26;13.53;;;9.37;;
22929;SDS011;11630;42.660;23.292;2022-08-19T05:48:56;16.93;;;8.13;;
22929;SDS011;11630;42.660;23.292;2022-08-19T05:51:27;10.10;;;8.63;;
22929;SDS011;11630;42.660;23.292;2022-08-19T05:53:58;20.00;;;8.47;;
22929;SDS011;11630;42.660;23.292;2022-08-19T05:56:30;17.43;;;8.33;;
22929;SDS011;11630;42.660;23.292;2022-08-19T05:59:01;12.00;;;8.03;;
22929;SDS011;11630;42.660;23.292;2022-08-19T06:01:42;10.70;;;7.30;;
22929;SDS011;11630;42.660;23.292;2022-08-19T06:04:08;13.13;;;8.00;;
22929;SDS011;11630;42.660;23.292;2022-08-19T06:06:39;13.17;;;8.00;;
22929;SDS011;11630;42.660;23.292;2022-08-19T06:09:10;11.80;;;7.30;;
22929;SDS011;11630;42.660;23.292;2022-08-19T06:11:43;15.23;;;8.40;;
22929;SDS011;11630;42.660;23.292;2022-08-19T06:14:16;9.83;;;7.00;;
22929;SDS011;11630;42.660;23.292;2022-08-19T06:16:45;11.97;;;5.80;;
22929;SDS011;11630;42.660;23.292;2022-08-19T06:19:18;9.13;;;6.70;;
22929;SDS011;11630;42.660;23.292;2022-08-19T06:21:49;10.83;;;6.50;;
22929;SDS011;11630;42.660;23.292;2022-08-19T06:24:22;13.60;;;9.03;;
22929;SDS011;11630;42.660;23.292;2022-08-19T06:26:55;21.97;;;7.80;;
22929;SDS011;11630;42.660;23.292;2022-08-19T06:29:27;12.27;;;7.67;;
22929;SDS011;11630;42.660;23.292;2022-08-19T06:31:57;9.20;;;7.57;;
22929;SDS011;11630;42.660;23.292;2022-08-19T06:34:30;11.47;;;7.77;;
22929;SDS011;11630;42.660;23.292;2022-08-19T06:37:04;15.77;;;8.27;;
22929;SDS011;11630;42.660;23.292;2022-08-19T06:39:36;19.73;;;8.90;;
22929;SDS011;11630;42.660;23.292;2022-08-19T06:42:08;39.10;;;11.37;;
22929;SDS011;11630;42.660;23.292;2022-08-19T06:44:42;14.43;;;8.43;;
22929;SDS011;11630;42.660;23.292;2022-08-19T06:47:14;19.93;;;8.57;;
22929;SDS011;11630;42.660;23.292;2022-08-19T06:49:46;11.90;;;8.50;;
22929;SDS011;11630;42.660;23.292;2022-08-19T06:52:19;14.93;;;7.73;;
22929;SDS011;11630;42.660;23.292;2022-08-19T06:54:50;15.03;;;7.00;;
22929;SDS011;11630;42.660;23.292;2022-08-19T06:57:20;10.97;;;7.23;;
22929;SDS011;11630;42.660;23.292;2022-08-19T06:59:52;14.33;;;8.70;;
22929;SDS011;11630;42.660;23.292;2022-08-19T07:02:23;14.20;;;7.53;;
22929;SDS011;11630;42.660;23.292;2022-08-19T07:04:55;10.80;;;7.87;;
22929;SDS011;11630;42.660;23.292;2022-08-19T07:07:26;13.63;;;8.00;;
22929;SDS011;11630;42.660;23.292;2022-08-19T07:09:56;14.17;;;7.93;;
22929;SDS011;11630;42.660;23.292;2022-08-19T07:12:28;16.27;;;7.90;;
22929;SDS011;11630;42.660;23.292;2022-08-19T07:15:00;14.13;;;6.67;;
22929;SDS011;11630;42.660;23.292;2022-08-19T07:17:34;11.30;;;7.27;;
22929;SDS011;11630;42.660;23.292;2022-08-19T07:20:06;10.90;;;6.83;;
22929;SDS011;11630;42.660;23.292;2022-08-19T07:22:38;13.53;;;7.83;;
22929;SDS011;11630;42.660;23.292;2022-08-19T07:25:09;13.10;;;7.55;;
22929;SDS011;11630;42.660;23.292;2022-08-19T07:27:41;15.48;;;7.60;;
22929;SDS011;11630;42.660;23.292;2022-08-19T07:30:12;11.00;;;8.23;;
22929;SDS011;11630;42.660;23.292;2022-08-19T07:32:43;15.53;;;7.17;;
22929;SDS011;11630;42.660;23.292;2022-08-19T07:35:13;10.75;;;7.45;;
22929;SDS011;11630;42.660;23.292;2022-08-19T07:37:43;11.18;;;7.60;;
22929;SDS011;11630;42.660;23.292;2022-08-19T07:40:15;16.90;;;7.62;;
22929;SDS011;11630;42.660;23.292;2022-08-19T07:42:45;16.05;;;8.13;;
22929;SDS011;11630;42.660;23.292;2022-08-19T07:45:16;19.70;;;7.33;;
22929;SDS011;11630;42.660;23.292;2022-08-19T07:47:48;27.07;;;6.90;;
22929;SDS011;11630;42.660;23.292;2022-08-19T07:50:19;9.60;;;6.55;;
22929;SDS011;11630;42.660;23.292;2022-08-19T07:52:49;8.23;;;6.42;;
22929;SDS011;11630;42.660;23.292;2022-08-19T07:55:23;7.62;;;6.75;;
22929;SDS011;11630;42.660;23.292;2022-08-19T07:57:52;11.90;;;6.72;;
22929;SDS011;11630;42.660;23.292;2022-08-19T08:00:23;9.13;;;6.45;;
22929;SDS011;11630;42.660;23.292;2022-08-19T08:02:53;21.00;;;8.20;;
22929;SDS011;11630;42.660;23.292;2022-08-19T08:05:23;20.23;;;6.92;;
22929;SDS011;11630;42.660;23.292;2022-08-19T08:08:11;10.95;;;7.58;;
22929;SDS011;11630;42.660;23.292;2022-08-19T08:10:59;9.35;;;6.45;;
22929;SDS011;11630;42.660;23.292;2022-08-19T08:13:31;14.10;;;6.22;;
22929;SDS011;11630;42.660;23.292;2022-08-19T08:16:02;10.13;;;6.85;;
22929;SDS011;11630;42.660;23.292;2022-08-19T08:18:35;8.90;;;6.28;;
22929;SDS011;11630;42.660;23.292;2022-08-19T08:21:06;14.00;;;6.55;;
22929;SDS011;11630;42.660;23.292;2022-08-19T08:23:37;13.18;;;6.85;;
22929;SDS011;11630;42.660;23.292;2022-08-19T08:26:08;16.97;;;7.20;;
22929;SDS011;11630;42.660;23.292;2022-08-19T08:28:38;16.77;;;6.65;;
22929;SDS011;11630;42.660;23.292;2022-08-19T08:31:10;11.83;;;7.58;;
22929;SDS011;11630;42.660;23.292;2022-08-19T08:33:41;8.90;;;6.75;;
22929;SDS011;11630;42.660;23.292;2022-08-19T08:36:12;8.50;;;5.37;;
22929;SDS011;11630;42.660;23.292;2022-08-19T08:38:43;8.18;;;5.75;;
22929;SDS011;11630;42.660;23.292;2022-08-19T08:44:16;7.92;;;5.17;;
22929;SDS011;11630;42.660;23.292;2022-08-19T08:46:48;11.33;;;5.62;;
22929;SDS011;11630;42.660;23.292;2022-08-19T08:49:26;7.47;;;5.40;;
22929;SDS011;11630;42.660;23.292;2022-08-19T08:52:18;11.63;;;6.05;;
22929;SDS011;11630;42.660;23.292;2022-08-19T08:54:54;9.50;;;5.45;;
22929;SDS011;11630;42.660;23.292;2022-08-19T08:57:29;13.35;;;5.40;;
22929;SDS011;11630;42.660;23.292;2022-08-19T09:00:23;7.25;;;4.62;;
22929;SDS011;11630;42.660;23.292;2022-08-19T09:02:54;5.42;;;4.80;;
22929;SDS011;11630;42.660;23.292;2022-08-19T09:05:35;4.53;;;4.08;;
22929;SDS011;11630;42.660;23.292;2022-08-19T09:08:17;5.42;;;4.25;;
22929;SDS011;11630;42.660;23.292;2022-08-19T09:10:44;8.03;;;4.60;;
22929;SDS011;11630;42.660;23.292;2022-08-19T09:16:03;9.70;;;4.47;;
22929;SDS011;11630;42.660;23.292;2022-08-19T09:19:01;8.80;;;5.60;;
22929;SDS011;11630;42.660;23.292;2022-08-19T09:21:11;6.83;;;4.72;;
22929;SDS011;11630;42.660;23.292;2022-08-19T09:23:43;5.85;;;4.37;;
22929;SDS011;11630;42.660;23.292;2022-08-19T09:26:16;3.90;;;3.45;;
22929;SDS011;11630;42.660;23.292;2022-08-19T09:28:51;7.58;;;3.20;;
22929;SDS011;11630;42.660;23.292;2022-08-19T09:31:24;4.03;;;3.40;;
22929;SDS011;11630;42.660;23.292;2022-08-19T09:33:56;5.50;;;3.52;;
22929;SDS011;11630;42.660;23.292;2022-08-19T09:36:28;4.37;;;3.98;;
22929;SDS011;11630;42.660;23.292;2022-08-19T09:38:59;6.40;;;5.05;;
22929;SDS011;11630;42.660;23.292;2022-08-19T09:41:32;6.67;;;3.95;;
22929;SDS011;11630;42.660;23.292;2022-08-19T09:44:02;8.80;;;3.70;;
22929;SDS011;11630;42.660;23.292;2022-08-19T09:46:33;4.60;;;4.20;;
22929;SDS011;11630;42.660;23.292;2022-08-19T09:49:04;6.35;;;4.53;;
22929;SDS011;11630;42.660;23.292;2022-08-19T09:51:35;6.85;;;4.10;;
22929;SDS011;11630;42.660;23.292;2022-08-19T09:54:07;6.22;;;4.30;;
22929;SDS011;11630;42.660;23.292;2022-08-19T09:56:38;7.90;;;3.90;;
22929;SDS011;11630;42.660;23.292;2022-08-19T09:59:09;6.10;;;4.17;;
22929;SDS011;11630;42.660;23.292;2022-08-19T10:01:41;6.15;;;3.80;;
22929;SDS011;11630;42.660;23.292;2022-08-19T10:04:12;5.30;;;3.77;;
22929;SDS011;11630;42.660;23.292;2022-08-19T10:06:47;5.35;;;3.62;;
22929;SDS011;11630;42.660;23.292;2022-08-19T10:09:18;4.08;;;3.30;;
22929;SDS011;11630;42.660;23.292;2022-08-19T10:11:52;9.75;;;4.28;;
22929;SDS011;11630;42.660;23.292;2022-08-19T10:14:23;6.65;;;3.10;;
22929;SDS011;11630;42.660;23.292;2022-08-19T10:16:53;5.37;;;3.87;;
22929;SDS011;11630;42.660;23.292;2022-08-19T10:19:24;6.28;;;3.67;;
22929;SDS011;11630;42.660;23.292;2022-08-19T10:21:55;5.55;;;4.95;;
22929;SDS011;11630;42.660;23.292;2022-08-19T10:24:29;9.18;;;4.25;;
22929;SDS011;11630;42.660;23.292;2022-08-19T10:27:06;6.53;;;3.52;;
22929;SDS011;11630;42.660;23.292;2022-08-19T10:29:37;5.53;;;5.03;;
22929;SDS011;11630;42.660;23.292;2022-08-19T10:32:08;8.20;;;3.92;;
22929;SDS011;11630;42.660;23.292;2022-08-19T10:34:39;6.85;;;4.40;;
22929;SDS011;11630;42.660;23.292;2022-08-19T10:37:10;9.75;;;4.33;;
22929;SDS011;11630;42.660;23.292;2022-08-19T10:39:41;4.10;;;3.72;;
22929;SDS011;11630;42.660;23.292;2022-08-19T10:42:13;6.15;;;4.15;;
22929;SDS011;11630;42.660;23.292;2022-08-19T10:44:43;5.28;;;4.03;;
22929;SDS011;11630;42.660;23.292;2022-08-19T10:47:13;7.17;;;3.98;;
22929;SDS011;11630;42.660;23.292;2022-08-19T10:49:43;4.33;;;3.83;;
22929;SDS011;11630;42.660;23.292;2022-08-19T10:52:30;6.35;;;3.90;;
22929;SDS011;11630;42.660;23.292;2022-08-19T10:55:02;5.62;;;4.12;;
22929;SDS011;11630;42.660;23.292;2022-08-19T10:57:49;7.87;;;3.95;;
22929;SDS011;11630;42.660;23.292;2022-08-19T11:00:20;5.35;;;4.47;;
22929;SDS011;11630;42.660;23.292;2022-08-19T11:02:51;9.90;;;4.37;;
22929;SDS011;11630;42.660;23.292;2022-08-19T11:05:22;7.78;;;3.90;;
22929;SDS011;11630;42.660;23.292;2022-08-19T11:07:53;6.37;;;5.35;;
22929;SDS011;11630;42.660;23.292;2022-08-19T11:10:24;5.20;;;3.50;;
22929;SDS011;11630;42.660;23.292;2022-08-19T11:12:55;7.58;;;4.00;;
22929;SDS011;11630;42.660;23.292;2022-08-19T11:15:26;9.03;;;4.03;;
22929;SDS011;11630;42.660;23.292;2022-08-19T11:17:57;5.85;;;4.10;;
22929;SDS011;11630;42.660;23.292;2022-08-19T11:20:28;6.37;;;4.30;;
22929;SDS011;11630;42.660;23.292;2022-08-19T11:22:59;4.60;;;4.10;;
22929;SDS011;11630;42.660;23.292;2022-08-19T11:25:30;6.28;;;4.00;;
22929;SDS011;11630;42.660;23.292;2022-08-19T11:28:02;18.80;;;5.55;;
22929;SDS011;11630;42.660;23.292;2022-08-19T11:30:33;5.67;;;4.50;;
22929;SDS011;11630;42.660;23.292;2022-08-19T11:33:04;6.08;;;4.58;;
22929;SDS011;11630;42.660;23.292;2022-08-19T11:35:38;6.47;;;4.20;;
22929;SDS011;11630;42.660;23.292;2022-08-19T11:38:07;11.95;;;5.00;;
22929;SDS011;11630;42.660;23.292;2022-08-19T11:40:37;10.90;;;4.53;;
22929;SDS011;11630;42.660;23.292;2022-08-19T11:43:08;7.67;;;3.90;;
22929;SDS011;11630;42.660;23.292;2022-08-19T11:45:39;13.32;;;4.20;;
22929;SDS011;11630;42.660;23.292;2022-08-19T11:48:10;6.90;;;3.98;;
22929;SDS011;11630;42.660;23.292;2022-08-19T11:50:40;5.40;;;4.30;;
22929;SDS011;11630;42.660;23.292;2022-08-19T11:53:10;6.65;;;3.45;;
22929;SDS011;11630;42.660;23.292;2022-08-19T11:55:41;8.90;;;4.83;;
22929;SDS011;11630;42.660;23.292;2022-08-19T11:58:12;7.97;;;5.10;;
22929;SDS011;11630;42.660;23.292;2022-08-19T12:00:43;7.25;;;4.95;;
22929;SDS011;11630;42.660;23.292;2022-08-19T12:03:14;8.58;;;4.85;;
22929;SDS011;11630;42.660;23.292;2022-08-19T12:05:46;8.35;;;4.85;;
22929;SDS011;11630;42.660;23.292;2022-08-19T12:08:17;10.53;;;4.70;;
22929;SDS011;11630;42.660;23.292;2022-08-19T12:10:48;7.78;;;4.75;;
22929;SDS011;11630;42.660;23.292;2022-08-19T12:13:19;14.58;;;5.22;;
22929;SDS011;11630;42.660;23.292;2022-08-19T12:15:50;10.10;;;4.78;;
22929;SDS011;11630;42.660;23.292;2022-08-19T12:18:21;8.60;;;4.17;;
22929;SDS011;11630;42.660;23.292;2022-08-19T12:20:52;14.78;;;5.08;;
22929;SDS011;11630;42.660;23.292;2022-08-19T12:23:23;12.75;;;4.65;;
22929;SDS011;11630;42.660;23.292;2022-08-19T12:25:54;10.03;;;4.00;;
22929;SDS011;11630;42.660;23.292;2022-08-19T12:28:25;7.12;;;4.58;;
22929;SDS011;11630;42.660;23.292;2022-08-19T12:30:56;14.20;;;4.45;;
22929;SDS011;11630;42.660;23.292;2022-08-19T12:33:27;8.30;;;4.70;;
22929;SDS011;11630;42.660;23.292;2022-08-19T12:36:02;5.80;;;4.25;;
22929;SDS011;11630;42.660;23.292;2022-08-19T12:38:33;9.33;;;4.67;;
22929;SDS011;11630;42.660;23.292;2022-08-19T12:41:09;6.12;;;4.83;;
22929;SDS011;11630;42.660;23.292;2022-08-19T12:43:40;12.55;;;4.47;;
22929;SDS011;11630;42.660;23.292;2022-08-19T12:46:11;7.42;;;5.33;;
22929;SDS011;11630;42.660;23.292;2022-08-19T12:48:42;6.80;;;4.62;;
22929;SDS011;11630;42.660;23.292;2022-08-19T12:51:14;4.55;;;4.15;;
22929;SDS011;11630;42.660;23.292;2022-08-19T12:53:46;5.45;;;4.50;;
22929;SDS011;11630;42.660;23.292;2022-08-19T12:56:16;8.28;;;4.33;;
22929;SDS011;11630;42.660;23.292;2022-08-19T12:58:47;5.25;;;3.87;;
22929;SDS011;11630;42.660;23.292;2022-08-19T13:01:18;29.32;;;5.75;;
22929;SDS011;11630;42.660;23.292;2022-08-19T13:03:50;9.80;;;4.20;;
22929;SDS011;11630;42.660;23.292;2022-08-19T13:06:21;7.17;;;3.90;;
22929;SDS011;11630;42.660;23.292;2022-08-19T13:08:52;11.95;;;4.22;;
22929;SDS011;11630;42.660;23.292;2022-08-19T13:11:22;7.08;;;4.33;;
22929;SDS011;11630;42.660;23.292;2022-08-19T13:13:53;4.50;;;3.75;;
22929;SDS011;11630;42.660;23.292;2022-08-19T13:16:24;4.40;;;4.00;;
22929;SDS011;11630;42.660;23.292;2022-08-19T13:18:54;7.15;;;4.47;;
22929;SDS011;11630;42.660;23.292;2022-08-19T13:21:26;7.67;;;4.28;;
22929;SDS011;11630;42.660;23.292;2022-08-19T13:23:57;7.20;;;4.55;;
22929;SDS011;11630;42.660;23.292;2022-08-19T13:26:28;15.08;;;4.50;;
22929;SDS011;11630;42.660;23.292;2022-08-19T13:28:58;6.33;;;4.40;;
22929;SDS011;11630;42.660;23.292;2022-08-19T13:31:45;7.92;;;4.35;;
22929;SDS011;11630;42.660;23.292;2022-08-19T13:34:34;11.28;;;4.90;;
22929;SDS011;11630;42.660;23.292;2022-08-19T13:37:05;8.20;;;4.65;;
22929;SDS011;11630;42.660;23.292;2022-08-19T13:39:36;15.15;;;5.17;;
22929;SDS011;11630;42.660;23.292;2022-08-19T13:42:07;5.28;;;3.83;;
22929;SDS011;11630;42.660;23.292;2022-08-19T13:44:38;10.65;;;5.20;;
22929;SDS011;11630;42.660;23.292;2022-08-19T13:47:08;6.97;;;4.58;;
22929;SDS011;11630;42.660;23.292;2022-08-19T13:49:39;4.58;;;4.17;;
22929;SDS011;11630;42.660;23.292;2022-08-19T13:52:10;6.62;;;4.30;;
22929;SDS011;11630;42.660;23.292;2022-08-19T13:54:41;6.05;;;4.47;;
22929;SDS011;11630;42.660;23.292;2022-08-19T13:57:13;9.63;;;4.85;;
22929;SDS011;11630;42.660;23.292;2022-08-19T13:59:43;4.97;;;4.33;;
22929;SDS011;11630;42.660;23.292;2022-08-19T14:02:14;10.05;;;4.65;;
22929;SDS011;11630;42.660;23.292;2022-08-19T14:04:45;8.13;;;4.87;;
22929;SDS011;11630;42.660;23.292;2022-08-19T14:07:16;6.25;;;4.15;;
22929;SDS011;11630;42.660;23.292;2022-08-19T14:09:48;5.40;;;4.10;;
22929;SDS011;11630;42.660;23.292;2022-08-19T14:12:21;8.20;;;4.45;;
22929;SDS011;11630;42.660;23.292;2022-08-19T14:14:53;13.38;;;4.42;;
22929;SDS011;11630;42.660;23.292;2022-08-19T14:17:24;6.17;;;4.72;;
22929;SDS011;11630;42.660;23.292;2022-08-19T14:19:58;11.90;;;3.90;;
22929;SDS011;11630;42.660;23.292;2022-08-19T14:22:30;4.62;;;4.17;;
22929;SDS011;11630;42.660;23.292;2022-08-19T14:25:01;8.58;;;4.65;;
22929;SDS011;11630;42.660;23.292;2022-08-19T14:27:33;18.85;;;5.70;;
22929;SDS011;11630;42.660;23.292;2022-08-19T14:30:06;21.35;;;5.53;;
22929;SDS011;11630;42.660;23.292;2022-08-19T14:32:36;9.43;;;4.40;;
22929;SDS011;11630;42.660;23.292;2022-08-19T14:35:07;4.85;;;4.08;;
22929;SDS011;11630;42.660;23.292;2022-08-19T14:37:39;6.72;;;4.35;;
22929;SDS011;11630;42.660;23.292;2022-08-19T14:40:12;7.97;;;4.22;;
22929;SDS011;11630;42.660;23.292;2022-08-19T14:42:43;4.80;;;4.28;;
22929;SDS011;11630;42.660;23.292;2022-08-19T14:45:12;6.22;;;4.35;;
22929;SDS011;11630;42.660;23.292;2022-08-19T14:47:44;4.90;;;4.50;;
22929;SDS011;11630;42.660;23.292;2022-08-19T14:50:15;9.83;;;4.40;;
22929;SDS011;11630;42.660;23.292;2022-08-19T14:52:46;6.45;;;4.60;;
22929;SDS011;11630;42.660;23.292;2022-08-19T14:55:17;7.70;;;4.72;;
22929;SDS011;11630;42.660;23.292;2022-08-19T14:57:48;7.53;;;5.30;;
22929;SDS011;11630;42.660;23.292;2022-08-19T15:00:19;13.83;;;4.90;;
22929;SDS011;11630;42.660;23.292;2022-08-19T15:02:50;10.03;;;4.95;;